Mist van: 16-11-2018 08:00 tot: 11:00 waarschuwing voor: Mist niveau: Geel info button

Weather Underground Historische gegevens

Dagelijkse Samenvatting november 16, 2018 Eenheden:  Metrisch    Engels   Beide
« Vorige Dag
Volgende Dag »
Dagelijkse Wekelijkse Maandelijkse Jaarlijkse Aangepaste
  Huidig: Hoog: Laag: Gemiddeld:
Temperatuur: -18.6 °C -17.8 °C -18.8 °C -17.9 °C
Dauwpunt: -46.3 °C -17.8 °C -46.4 °C -45.1 °C
Vochtigheid: 1 % Humidity % 1 % 1 %
Wind snelheid: 7.7 km/h 0 km/h 0 km/h 4.3 km/h
Windvlaag: 10.3 km/h 0 km/h - -
Wind:ESE - - ESE
Luchtdruk: 34841.9 hPa 0 hPa 34747.1 hPa -
Neerslag: 0 mm      
Historical Graphs
 
 
Tabel voor november 16, 2018
Tijd Temperatuur Dauwpunt Luchtdruk Wind Wind snelheid Windvlaag Vochtigheid Regenval per uur
-17.8 °C -17.8 °C 0 hPa Calm     Humidity % 0 mm
00:00 -16.3 °C -44.8 °C 34747.1 hPa Calm   5.1 km/h 1 % 0 mm
00:15 -16.4 °C -44.9 °C 34747.1 hPa SE 2.6 km/h 5.1 km/h 1 % 0 mm
00:30 -16.7 °C -45.1 °C 34750.5 hPa SE 2.6 km/h 7.7 km/h 1 % 0 mm
00:45 -16.8 °C -45.2 °C 34747.1 hPa SE 5.1 km/h 7.7 km/h 1 % 0 mm
01:00 -16.8 °C -45.1 °C 34750.5 hPa SE 5.1 km/h 5.1 km/h 1 % 0 mm
01:15 -16.8 °C -45.1 °C 34753.9 hPa SE 2.6 km/h 7.7 km/h 1 % 0 mm
01:30 -16.8 °C -45.1 °C 34757.3 hPa Calm   5.1 km/h 1 % 0 mm
01:45 -16.8 °C -45.2 °C 34757.3 hPa Calm   5.1 km/h 1 % 0 mm
02:00 -17 °C -45.3 °C 34764.1 hPa Calm   5.1 km/h 1 % 0 mm
02:15 -17.1 °C -45.3 °C 34764.1 hPa SE 2.6 km/h 7.7 km/h 1 % 0 mm
02:30 -17.3 °C -45.4 °C 34764.1 hPa SE 2.6 km/h 7.7 km/h 1 % 0 mm
02:45 -17.4 °C -45.6 °C 34760.7 hPa SE 5.1 km/h 12.9 km/h 1 % 0 mm
03:00 -17.3 °C -45.4 °C 34760.7 hPa SE 10.3 km/h 12.9 km/h 1 % 0 mm
03:15 -17.3 °C -45.5 °C 34764.1 hPa SE 5.1 km/h 10.3 km/h 1 % 0 mm
03:30 -17.6 °C -45.6 °C 34760.7 hPa SE 7.7 km/h 7.7 km/h 1 % 0 mm
03:45 -17.9 °C -45.9 °C 34764.1 hPa SE 7.7 km/h 7.7 km/h 1 % 0 mm
04:00 -18.3 °C -46.1 °C 34770.8 hPa Calm   5.1 km/h 1 % 0 mm
04:15 -18.5 °C -46.2 °C 34774.2 hPa SE 5.1 km/h 10.3 km/h 1 % 0 mm
04:30 -18.6 °C -46.3 °C 34770.8 hPa SE 5.1 km/h 10.3 km/h 1 % 0 mm
04:45 -18.6 °C -46.2 °C 34770.8 hPa SE 5.1 km/h 7.7 km/h 1 % 0 mm
05:00 -18.6 °C -46.2 °C 34774.2 hPa Calm   5.1 km/h 1 % 0 mm
05:15 -18.6 °C -46.2 °C 34781 hPa SE 5.1 km/h 7.7 km/h 1 % 0 mm
05:30 -18.6 °C -46.2 °C 34777.6 hPa ESE 10.3 km/h 18.2 km/h 1 % 0 mm
05:45 -18.6 °C -46.2 °C 34784.4 hPa ESE 2.6 km/h 7.7 km/h 1 % 0 mm
06:15 -18.6 °C -46.2 °C 34797.9 hPa ESE 7.7 km/h 7.7 km/h 1 % 0 mm
06:30 -18.6 °C -46.2 °C 34801.3 hPa ESE 5.1 km/h 10.3 km/h 1 % 0 mm
06:45 -18.6 °C -46.3 °C 34808.1 hPa ESE 2.6 km/h 10.3 km/h 1 % 0 mm
07:00 -18.7 °C -46.3 °C 34814.9 hPa ESE 2.6 km/h 5.1 km/h 1 % 0 mm
07:15 -18.7 °C -46.3 °C 34814.9 hPa ESE 7.7 km/h 10.3 km/h 1 % 0 mm
07:30 -18.7 °C -46.4 °C 34818.2 hPa ESE 7.7 km/h 15.6 km/h 1 % 0 mm
07:45 -18.8 °C -46.4 °C 34821.6 hPa ESE 5.1 km/h 15.6 km/h 1 % 0 mm
08:00 -18.8 °C -46.4 °C 34825 hPa ESE 5.1 km/h 18.2 km/h 1 % 0 mm
08:15 -18.8 °C -46.4 °C 34831.8 hPa ESE 2.6 km/h 10.3 km/h 1 % 0 mm
08:30 -18.8 °C -46.4 °C 34835.2 hPa ESE 5.1 km/h 12.9 km/h 1 % 0 mm
08:45 -18.8 °C -46.4 °C 34831.8 hPa SE 7.7 km/h 20.8 km/h 1 % 0 mm
09:00 -18.7 °C -46.4 °C 34838.6 hPa SE 2.6 km/h 7.7 km/h 1 % 0 mm
09:15 -18.6 °C -46.3 °C 34841.9 hPa ESE 7.7 km/h 10.3 km/h 1 % 0 mm
Gegevens verzameld door Weather Underground - 1.75 mb

Script ontwikkeld door  Jim McMurry - jmcmurry@mwt.net Aangepast voor de template door  Wim van der Kuil - Leuven-Template.eu